Failsworth, United Kingdom
Current Conditions -  °F | °C
As of 11:20 PM on Saturday 22 Nov 2014 (Local Time) from EGCC Reporting Station
Broken Clouds Broken Clouds  
Wind Chill: 44°   Ceiling: 2900
Heat Index: 46°   Visibility: 6mi
Dew Point: 46°   Wind: 5mph
Humidity: 100%   Direction: 230°SW
Pressure: 30"   Gusts: NA
Location:  53.5°N, 2.17°W
Report Text: EGCC 222320Z 23004KT 9999 SCT018 BKN029 08/08 Q1016 NOSIG
Loading
Personal Weather Stations






























Interactive Weather Map New forecast layout! Learn more

10-Day Weather Forecast

Advertisements
Track Severe Weather on mobile